GCLP Airport Information

Runway Information
Runway 03R Length 10171 ft width 148 ft
Elevation 69 ft Threshold ft Heading 22
Runway 21L Length 10171 ft Width 148 ft
Elevation 27 ft Threshold ft Heading 202
Runway 03L Length 10171 ft width 148 ft
Elevation 78 ft Threshold ft Heading 22
Runway 21R Length 10171 ft Width 148 ft
Elevation 33 ft Threshold ft Heading 202
Airport Frequencies
Type APP Name APP Frequency 120.9 MHZ
Type ATIS Name ATIS Frequency 118.6 MHZ
Type GND Name GND Frequency 121.7 MHZ
Type TWR Name TWR Frequency 118.3 MHZ
Airport Navaids
Type VOR-DME Name Gran Canaria Frequency 112900 KHZ
Type VOR-DME Name Gran Canaria Frequency 115000 KHZ
Type TACAN Name Gran Canaria Frequency 115600 KHZ
Type NDB Name Gran Canaria Frequency 365 KHZ
Airport Weather Information & NOTAM
ADDS - METARS form results

(1823 UTC 19 August 2022)
Data provider http://aviationweather.gov/metar/data/
 
METAR text: GCLP 191800Z 02023KT 9999 FEW025 25/19 Q1014 NOSIG
Conditions at: GCLP (LAS PALMAS/GANDO, ES) observed 1800 UTC 19 August 2022
Temperature: 25.0°C (77°F)
Dewpoint: 19.0°C (66°F) [RH = 69%]
Pressure (altimeter): 29.94 inches Hg (1014.0 mb)
Winds: from the NNE (20 degrees) at 26 MPH (23 knots; 11.8 m/s)
Visibility: 6 or more miles (10+ km)
Ceiling: at least 12,000 feet AGL
Clouds: few clouds at 2500 feet AGL
Weather: no significant weather observed at this time

METAR text: GCLP 191730Z 02024KT 9999 FEW025 26/18 Q1014 NOSIG
Conditions at: GCLP (LAS PALMAS/GANDO, ES) observed 1730 UTC 19 August 2022
Temperature: 26.0°C (79°F)
Dewpoint: 18.0°C (64°F) [RH = 61%]
Pressure (altimeter): 29.94 inches Hg (1014.0 mb)
Winds: from the NNE (20 degrees) at 28 MPH (24 knots; 12.3 m/s)
Visibility: 6 or more miles (10+ km)
Ceiling: at least 12,000 feet AGL
Clouds: few clouds at 2500 feet AGL
Weather: no significant weather observed at this time

Forecast for: GCLP (LAS PALMAS/GANDO, ES)
Text: TAF GCLP 191400Z 1915/2015 02025KT 9999 FEW025 TX30/2014Z TN22/2006Z
Forecast period: 1500 UTC 19 August 2022 to 1500 UTC 20 August 2022
Forecast type: FROM: standard forecast or significant change
Winds: from the NNE (20 degrees) at 29 MPH (25 knots; 12.9 m/s)
Visibility: 6 or more miles (10+ km)
Ceiling: at least 12,000 feet AGL
Clouds: few clouds at 2500 feet AGL
Weather: no significant weather forecast for this period